createdAt,value
2019-01-08T00:00:53.671Z,1014.92
2019-01-08T00:02:02.873Z,1014.87
2019-01-08T00:03:12.322Z,1014.86
2019-01-08T00:04:21.525Z,1014.85
2019-01-08T00:05:31.238Z,1014.79
2019-01-08T00:06:40.168Z,1014.74
2019-01-08T00:07:49.344Z,1014.83
2019-01-08T00:08:58.779Z,1014.77
2019-01-08T00:10:08.214Z,1014.73
2019-01-08T00:11:17.395Z,1014.75
2019-01-08T00:12:26.633Z,1014.7
2019-01-08T00:13:36.216Z,1014.8
2019-01-08T00:14:45.148Z,1014.84
2019-01-08T00:15:54.347Z,1014.76
2019-01-08T00:17:04.055Z,1014.78
2019-01-08T00:18:13.232Z,1014.78
2019-01-08T00:19:22.165Z,1014.71
2019-01-08T00:20:31.890Z,1014.73
2019-01-08T00:21:41.077Z,1014.61
2019-01-08T00:22:51.009Z,1014.55
2019-01-08T00:23:59.936Z,1014.55
2019-01-08T00:25:08.926Z,1014.53
2019-01-08T00:26:18.102Z,1014.58
2019-01-08T00:27:27.907Z,1014.5
2019-01-08T00:28:42.986Z,1014.46
2019-01-08T00:29:52.496Z,1014.32
2019-01-08T00:31:01.513Z,1014.29
2019-01-08T00:32:10.934Z,1014.29
2019-01-08T00:33:20.116Z,1014.38
2019-01-08T00:34:29.355Z,1014.33
2019-01-08T00:35:38.554Z,1014.41
2019-01-08T00:36:48.277Z,1014.4
2019-01-08T00:37:57.464Z,1014.43
2019-01-08T00:39:06.928Z,1014.36
2019-01-08T00:40:16.418Z,1014.38
2019-01-08T00:41:25.850Z,1014.35
2019-01-08T00:42:35.785Z,1014.3
2019-01-08T00:43:45.222Z,1014.36
2019-01-08T00:44:54.645Z,1014.32
2019-01-08T00:46:04.423Z,1014.27
2019-01-08T00:47:13.856Z,1014.26
2019-01-08T00:48:23.047Z,1014.24
2019-01-08T00:49:31.998Z,1014.28
2019-01-08T00:50:41.427Z,1014.23
2019-01-08T00:51:50.873Z,1014.17
2019-01-08T00:53:00.802Z,1014.18
2019-01-08T00:54:10.025Z,1014.04
2019-01-08T00:55:19.016Z,1014.14
2019-01-08T00:56:27.956Z,1014.06
2019-01-08T00:57:37.401Z,1014.11
2019-01-08T00:58:51.405Z,1014.01
2019-01-08T01:00:00.879Z,1014.02
2019-01-08T01:01:10.066Z,1014.09
2019-01-08T01:02:19.511Z,1014.39
2019-01-08T01:03:28.449Z,1014.53
2019-01-08T01:04:37.866Z,1014.54
2019-01-08T01:05:47.318Z,1014.55
2019-01-08T01:06:57.002Z,1014.57
2019-01-08T01:08:06.467Z,1014.55
2019-01-08T01:09:15.406Z,1014.55
2019-01-08T01:10:24.855Z,1014.53
2019-01-08T01:11:34.540Z,1014.53
2019-01-08T01:12:43.824Z,1014.55
2019-01-08T01:13:53.004Z,1014.51
2019-01-08T01:15:02.777Z,1014.36
2019-01-08T01:16:12.783Z,1014.37
2019-01-08T01:17:22.270Z,1014.46
2019-01-08T01:18:30.953Z,1014.44
2019-01-08T01:19:40.885Z,1014.36
2019-01-08T01:20:50.080Z,1014.42
2019-01-08T01:22:00.810Z,1014.43
2019-01-08T01:23:10.528Z,1014.4
2019-01-08T01:24:19.963Z,1014.33
2019-01-08T01:25:29.152Z,1014.38
2019-01-08T01:26:38.855Z,1014.33
2019-01-08T01:27:48.041Z,1014.29
2019-01-08T01:29:00.065Z,1014.35
2019-01-08T01:30:09.364Z,1014.29
2019-01-08T01:31:19.084Z,1014.3
2019-01-08T01:32:27.998Z,1014.31
2019-01-08T01:33:37.433Z,1014.31
2019-01-08T01:34:47.131Z,1014.28
2019-01-08T01:35:56.323Z,1014.35
2019-01-08T01:37:06.019Z,1014.35
2019-01-08T01:38:15.704Z,1014.27
2019-01-08T01:39:24.670Z,1014.27
2019-01-08T01:40:33.887Z,1014.25
2019-01-08T01:41:43.396Z,1014.28
2019-01-08T01:42:53.356Z,1014.33
2019-01-08T01:44:03.048Z,1014.31
2019-01-08T01:45:12.230Z,1014.31
2019-01-08T01:46:21.934Z,1014.31
2019-01-08T01:47:31.114Z,1014.27
2019-01-08T01:48:40.559Z,1014.34
2019-01-08T01:49:49.721Z,1014.24
2019-01-08T01:50:59.161Z,1014.33
2019-01-08T01:52:08.329Z,1014.34
2019-01-08T01:53:17.522Z,1014.33
2019-01-08T01:54:26.957Z,1014.32
2019-01-08T01:55:36.385Z,1014.26
2019-01-08T01:56:45.815Z,1014.22
2019-01-08T01:57:54.994Z,1014.27
2019-01-08T01:59:08.431Z,1014.24
2019-01-08T02:00:18.145Z,1014.23
2019-01-08T02:01:27.326Z,1014.23
2019-01-08T02:02:37.002Z,1014.19
2019-01-08T02:03:46.691Z,1014.18
2019-01-08T02:04:56.620Z,1014.25
2019-01-08T02:06:05.816Z,1014.22
2019-01-08T02:07:15.079Z,1014.23
2019-01-08T02:08:24.279Z,1014.24
2019-01-08T02:09:33.467Z,1014.23
2019-01-08T02:10:42.895Z,1014.26
2019-01-08T02:11:52.357Z,1014.23
2019-01-08T02:13:02.062Z,1014.24
2019-01-08T02:14:11.517Z,1014.24
2019-01-08T02:15:20.958Z,1014.22
2019-01-08T02:16:30.379Z,1014.27
2019-01-08T02:17:39.814Z,1014.24
2019-01-08T02:18:48.990Z,1014.26
2019-01-08T02:19:58.542Z,1014.35
2019-01-08T02:21:08.224Z,1014.28
2019-01-08T02:22:17.917Z,1014.3
2019-01-08T02:23:27.343Z,1014.31
2019-01-08T02:24:36.770Z,1014.27
2019-01-08T02:25:45.981Z,1014.31
2019-01-08T02:26:55.670Z,1014.33
2019-01-08T02:28:04.625Z,1014.31
2019-01-08T02:29:16.564Z,1014.31
2019-01-08T02:30:25.895Z,1014.29
2019-01-08T02:31:35.097Z,1014.31
2019-01-08T02:32:44.581Z,1014.27
2019-01-08T02:33:53.776Z,1014.36
2019-01-08T02:35:03.024Z,1014.3
2019-01-08T02:36:12.475Z,1014.28
2019-01-08T02:37:21.935Z,1014.21
2019-01-08T02:38:31.668Z,1014.28
2019-01-08T02:39:41.155Z,1014.27
2019-01-08T02:40:50.639Z,1014.29
2019-01-08T02:42:00.530Z,1014.26
2019-01-08T02:43:10.523Z,1014.22
2019-01-08T02:44:19.857Z,1014.27
2019-01-08T02:45:29.880Z,1014.24
2019-01-08T02:46:39.672Z,1014.27
2019-01-08T02:47:49.771Z,1014.26
2019-01-08T02:48:59.049Z,1014.28
2019-01-08T02:50:08.520Z,1014.3
2019-01-08T02:51:17.459Z,1014.27
2019-01-08T02:52:27.395Z,1014.25
2019-01-08T02:53:36.877Z,1014.18
2019-01-08T02:54:45.568Z,1014.2
2019-01-08T02:55:55.619Z,1014.15
2019-01-08T02:57:05.309Z,1014.13
2019-01-08T02:58:14.776Z,1014.14
2019-01-08T02:59:25.120Z,1014.1
2019-01-08T03:00:34.858Z,1014.05
2019-01-08T03:01:43.824Z,1014.08
2019-01-08T03:02:52.992Z,1014.02
2019-01-08T03:04:02.413Z,1013.97
2019-01-08T03:05:12.176Z,1014.02
2019-01-08T03:06:21.136Z,1013.94
2019-01-08T03:07:30.325Z,1013.95
2019-01-08T03:08:39.759Z,1013.97
2019-01-08T03:09:49.223Z,1013.98
2019-01-08T03:10:58.166Z,1013.87
2019-01-08T03:12:07.605Z,1013.98
2019-01-08T03:13:17.329Z,1013.91
2019-01-08T03:14:26.532Z,1013.93
2019-01-08T03:15:35.475Z,1013.94
2019-01-08T03:16:44.485Z,1013.93
2019-01-08T03:17:53.711Z,1013.92
2019-01-08T03:19:02.651Z,1013.94
2019-01-08T03:20:12.097Z,1013.88
2019-01-08T03:21:21.568Z,1013.84
2019-01-08T03:22:30.749Z,1013.88
2019-01-08T03:23:39.922Z,1013.86
2019-01-08T03:24:49.134Z,1013.83
2019-01-08T03:25:58.584Z,1013.81
2019-01-08T03:27:07.524Z,1013.77
2019-01-08T03:28:16.724Z,1013.77
2019-01-08T03:29:33.454Z,1013.71
2019-01-08T03:30:43.080Z,1013.74
2019-01-08T03:31:53.093Z,1013.74
2019-01-08T03:33:02.834Z,1013.72
2019-01-08T03:34:12.264Z,1013.72
2019-01-08T03:35:21.452Z,1013.73
2019-01-08T03:36:30.400Z,1013.69
2019-01-08T03:37:39.872Z,1013.72
2019-01-08T03:38:49.400Z,1013.67
2019-01-08T03:39:58.332Z,1013.66
2019-01-08T03:41:07.265Z,1013.66
2019-01-08T03:42:16.453Z,1013.59
2019-01-08T03:43:25.909Z,1013.66
2019-01-08T03:44:34.700Z,1013.64
2019-01-08T03:45:44.181Z,1013.65
2019-01-08T03:46:53.889Z,1013.68
2019-01-08T03:48:03.365Z,1013.67
2019-01-08T03:49:12.822Z,1013.57
2019-01-08T03:50:22.004Z,1013.55
2019-01-08T03:51:30.967Z,1013.61
2019-01-08T03:52:40.648Z,1013.59
2019-01-08T03:53:50.131Z,1013.51
2019-01-08T03:54:59.556Z,1013.51
2019-01-08T03:56:09.000Z,1013.51
2019-01-08T03:57:18.203Z,1013.44
2019-01-08T03:58:28.176Z,1013.48
2019-01-08T03:59:41.809Z,1013.46
2019-01-08T04:00:51.419Z,1013.34
2019-01-08T04:02:01.143Z,1013.5
2019-01-08T04:03:09.824Z,1013.47
2019-01-08T04:04:18.856Z,1013.36
2019-01-08T04:05:28.036Z,1013.48
2019-01-08T04:06:37.225Z,1013.42
2019-01-08T04:07:46.690Z,1013.4
2019-01-08T04:08:55.880Z,1013.41
2019-01-08T04:10:05.079Z,1013.36
2019-01-08T04:11:14.532Z,1013.36
2019-01-08T04:12:23.752Z,1013.35
2019-01-08T04:13:33.450Z,1013.41
2019-01-08T04:14:43.151Z,1013.39
2019-01-08T04:15:52.826Z,1013.39
2019-01-08T04:17:03.201Z,1013.38
2019-01-08T04:18:12.644Z,1013.44
2019-01-08T04:19:21.378Z,1013.37
2019-01-08T04:20:30.816Z,1013.4
2019-01-08T04:21:40.297Z,1013.39
2019-01-08T04:22:49.997Z,1013.37
2019-01-08T04:23:59.541Z,1013.29
2019-01-08T04:25:09.241Z,1013.22
2019-01-08T04:26:18.419Z,1013.24
2019-01-08T04:27:27.843Z,1013.23
2019-01-08T04:28:37.529Z,1013.18
2019-01-08T04:29:50.537Z,1013.1
2019-01-08T04:31:00.609Z,1013.13
2019-01-08T04:32:09.814Z,1013.17
2019-01-08T04:33:18.754Z,1013.09
2019-01-08T04:34:28.198Z,1013.09
2019-01-08T04:35:37.380Z,1013.09
2019-01-08T04:36:46.564Z,1013.13
2019-01-08T04:37:55.826Z,1013.08
2019-01-08T04:39:05.512Z,1013.07
2019-01-08T04:40:15.212Z,1013.01
2019-01-08T04:41:24.455Z,1013
2019-01-08T04:42:34.195Z,1013.08
2019-01-08T04:43:43.414Z,1013.04
2019-01-08T04:44:53.101Z,1013.05
2019-01-08T04:46:02.545Z,1012.98
2019-01-08T04:47:11.999Z,1013.04
2019-01-08T04:48:21.690Z,1013.04
2019-01-08T04:49:31.394Z,1013.02
2019-01-08T04:50:40.107Z,1012.94
2019-01-08T04:51:49.404Z,1012.92
2019-01-08T04:52:58.856Z,1012.91
2019-01-08T04:54:08.549Z,1012.93
2019-01-08T04:55:18.261Z,1012.8
2019-01-08T04:56:27.704Z,1012.85
2019-01-08T04:57:37.373Z,1012.88
2019-01-08T04:58:46.816Z,1012.81
2019-01-08T04:59:58.996Z,1012.88
2019-01-08T05:01:08.599Z,1012.82
2019-01-08T05:02:17.812Z,1012.81
2019-01-08T05:03:27.262Z,1012.77
2019-01-08T05:04:36.950Z,1012.74
2019-01-08T05:05:46.172Z,1012.77
2019-01-08T05:06:56.244Z,1012.65
2019-01-08T05:08:05.516Z,1012.69
2019-01-08T05:09:15.487Z,1012.69
2019-01-08T05:10:24.763Z,1012.65
2019-01-08T05:11:33.689Z,1012.63
2019-01-08T05:12:42.882Z,1012.67
2019-01-08T05:13:52.906Z,1012.57
2019-01-08T05:15:01.625Z,1012.6
2019-01-08T05:16:11.154Z,1012.56
2019-01-08T05:17:20.344Z,1012.57
2019-01-08T05:18:29.789Z,1012.57
2019-01-08T05:19:38.968Z,1012.56
2019-01-08T05:20:48.206Z,1012.49
2019-01-08T05:21:57.179Z,1012.54
2019-01-08T05:23:06.633Z,1012.55
2019-01-08T05:24:15.851Z,1012.58
2019-01-08T05:25:25.570Z,1012.57
2019-01-08T05:26:34.763Z,1012.5
2019-01-08T05:27:43.959Z,1012.5
2019-01-08T05:28:53.411Z,1012.54
2019-01-08T05:30:07.678Z,1012.55
2019-01-08T05:31:17.821Z,1012.49
2019-01-08T05:32:27.248Z,1012.44
2019-01-08T05:33:36.713Z,1012.44
2019-01-08T05:34:45.691Z,1012.42
2019-01-08T05:35:55.133Z,1012.47
2019-01-08T05:37:04.074Z,1012.4
2019-01-08T05:38:13.769Z,1012.41
2019-01-08T05:39:22.474Z,1012.42
2019-01-08T05:40:31.684Z,1012.37
2019-01-08T05:41:40.660Z,1012.37
2019-01-08T05:42:50.817Z,1012.39
2019-01-08T05:44:00.016Z,1012.33
2019-01-08T05:45:09.204Z,1012.29
2019-01-08T05:46:17.918Z,1012.22
2019-01-08T05:47:27.609Z,1012.17
2019-01-08T05:48:36.286Z,1012.15
2019-01-08T05:49:45.273Z,1012.09
2019-01-08T05:50:54.480Z,1012.1
2019-01-08T05:52:04.038Z,1012.18
2019-01-08T05:53:12.991Z,1012.02
2019-01-08T05:54:22.416Z,1012
2019-01-08T05:55:31.651Z,1012.11
2019-01-08T05:56:40.914Z,1011.99
2019-01-08T05:57:50.112Z,1012.09
2019-01-08T05:58:59.876Z,1012.1
2019-01-08T06:00:16.248Z,1012.04
2019-01-08T06:01:26.040Z,1012.04
2019-01-08T06:02:36.729Z,1011.94
2019-01-08T06:03:46.153Z,1011.95
2019-01-08T06:04:55.587Z,1011.89
2019-01-08T06:06:04.685Z,1012.03
2019-01-08T06:07:14.161Z,1012
2019-01-08T06:08:23.396Z,1011.99
2019-01-08T06:09:33.100Z,1011.92
2019-01-08T06:10:42.323Z,1011.93
2019-01-08T06:11:51.276Z,1011.95
2019-01-08T06:13:00.517Z,1011.89
2019-01-08T06:14:09.957Z,1011.99
2019-01-08T06:15:19.383Z,1011.94
2019-01-08T06:16:28.327Z,1011.81
2019-01-08T06:17:38.303Z,1011.8
2019-01-08T06:18:47.975Z,1011.83
2019-01-08T06:19:57.204Z,1011.82
2019-01-08T06:21:06.681Z,1011.78
2019-01-08T06:22:15.956Z,1011.77
2019-01-08T06:23:25.638Z,1011.82
2019-01-08T06:24:35.081Z,1011.75
2019-01-08T06:25:44.242Z,1011.75
2019-01-08T06:26:53.923Z,1011.72
2019-01-08T06:28:03.667Z,1011.75
2019-01-08T06:29:12.857Z,1011.74
2019-01-08T06:30:24.794Z,1011.8
2019-01-08T06:31:34.407Z,1011.75
2019-01-08T06:32:44.107Z,1011.75
2019-01-08T06:33:53.306Z,1011.73
2019-01-08T06:35:02.512Z,1011.75
2019-01-08T06:36:11.959Z,1011.7
2019-01-08T06:37:21.381Z,1011.6
2019-01-08T06:38:30.577Z,1011.59
2019-01-08T06:39:39.521Z,1011.6
2019-01-08T06:40:57.294Z,1011.51
2019-01-08T06:42:06.466Z,1011.52
2019-01-08T06:43:15.407Z,1011.46
2019-01-08T06:44:25.057Z,1011.52
2019-01-08T06:45:34.239Z,1011.54
2019-01-08T06:46:43.423Z,1011.56
2019-01-08T06:47:52.922Z,1011.52
2019-01-08T06:49:02.111Z,1011.46
2019-01-08T06:50:11.809Z,1011.44
2019-01-08T06:51:21.013Z,1011.57
2019-01-08T06:52:30.463Z,1011.51
2019-01-08T06:53:41.071Z,1011.53
2019-01-08T06:54:50.009Z,1011.4
2019-01-08T06:55:59.187Z,1011.6
2019-01-08T06:57:08.889Z,1011.44
2019-01-08T06:58:18.090Z,1011.4
2019-01-08T06:59:27.546Z,1011.4
2019-01-08T07:00:36.737Z,1011.44
2019-01-08T07:01:45.925Z,1011.41
2019-01-08T07:02:55.104Z,1011.42
2019-01-08T07:04:04.573Z,1011.3
2019-01-08T07:05:14.026Z,1011.44
2019-01-08T07:06:23.218Z,1011.45
2019-01-08T07:07:32.229Z,1011.48
2019-01-08T07:08:41.740Z,1011.49
2019-01-08T07:09:51.237Z,1011.52
2019-01-08T07:11:00.463Z,1011.48
2019-01-08T07:12:09.905Z,1011.47
2019-01-08T07:13:19.095Z,1011.46
2019-01-08T07:14:28.024Z,1011.35
2019-01-08T07:15:37.455Z,1011.34
2019-01-08T07:16:46.966Z,1011.33
2019-01-08T07:17:56.398Z,1011.41
2019-01-08T07:19:06.102Z,1011.5
2019-01-08T07:20:15.399Z,1011.43
2019-01-08T07:21:24.593Z,1011.39
2019-01-08T07:22:33.819Z,1011.51
2019-01-08T07:23:43.011Z,1011.33
2019-01-08T07:24:52.442Z,1011.45
2019-01-08T07:26:01.468Z,1011.35
2019-01-08T07:27:16.258Z,1011.48
2019-01-08T07:28:25.780Z,1011.53
2019-01-08T07:29:36.325Z,1011.63
2019-01-08T07:30:46.022Z,1011.54
2019-01-08T07:31:55.208Z,1011.55
2019-01-08T07:33:04.917Z,1011.54
2019-01-08T07:34:14.348Z,1011.54
2019-01-08T07:35:25.067Z,1011.54
2019-01-08T07:36:34.007Z,1011.54
2019-01-08T07:37:43.005Z,1011.63
2019-01-08T07:38:52.230Z,1011.52
2019-01-08T07:40:01.959Z,1011.48
2019-01-08T07:41:11.502Z,1011.62
2019-01-08T07:42:20.714Z,1011.47
2019-01-08T07:43:30.696Z,1011.46
2019-01-08T07:44:39.916Z,1011.4
2019-01-08T07:45:49.642Z,1011.56
2019-01-08T07:46:59.458Z,1011.52
2019-01-08T07:48:08.421Z,1011.68
2019-01-08T07:49:17.848Z,1011.54
2019-01-08T07:50:27.293Z,1011.45
2019-01-08T07:51:36.582Z,1011.54
2019-01-08T07:52:46.020Z,1011.52
2019-01-08T07:53:55.489Z,1011.51
2019-01-08T07:55:05.426Z,1011.43
2019-01-08T07:56:14.955Z,1011.55
2019-01-08T07:57:24.644Z,1011.6
2019-01-08T07:58:34.346Z,1011.57
2019-01-08T07:59:44.033Z,1011.52
2019-01-08T08:00:53.737Z,1011.58
2019-01-08T08:02:03.453Z,1011.55
2019-01-08T08:03:13.956Z,1011.54
2019-01-08T08:04:23.411Z,1011.53
2019-01-08T08:05:32.856Z,1011.53
2019-01-08T08:06:42.284Z,1011.67
2019-01-08T08:07:51.459Z,1011.57
2019-01-08T08:09:01.861Z,1011.65
2019-01-08T08:10:11.061Z,1011.64
2019-01-08T08:11:20.509Z,1011.43
2019-01-08T08:12:29.784Z,1011.44
2019-01-08T08:13:39.218Z,1011.47
2019-01-08T08:14:48.708Z,1011.63
2019-01-08T08:15:57.730Z,1011.55
2019-01-08T08:17:07.157Z,1011.55
2019-01-08T08:18:16.919Z,1011.58
2019-01-08T08:19:26.382Z,1011.53
2019-01-08T08:20:36.306Z,1011.58
2019-01-08T08:21:45.764Z,1011.64
2019-01-08T08:22:54.979Z,1011.54
2019-01-08T08:24:03.931Z,1011.51
2019-01-08T08:25:13.132Z,1011.56
2019-01-08T08:26:22.327Z,1011.52
2019-01-08T08:27:31.508Z,1011.55
2019-01-08T08:28:40.944Z,1011.49
2019-01-08T08:29:50.667Z,1011.49
2019-01-08T08:30:59.899Z,1011.46
2019-01-08T08:32:09.348Z,1011.35
2019-01-08T08:33:18.556Z,1011.43
2019-01-08T08:34:28.301Z,1011.52
2019-01-08T08:35:38.007Z,1011.47
2019-01-08T08:36:47.441Z,1011.43
2019-01-08T08:37:56.447Z,1011.53
2019-01-08T08:39:06.249Z,1011.46
2019-01-08T08:40:15.214Z,1011.5
2019-01-08T08:41:24.405Z,1011.42
2019-01-08T08:42:33.589Z,1011.45
2019-01-08T08:43:42.544Z,1011.42
2019-01-08T08:44:51.972Z,1011.4
2019-01-08T08:46:01.687Z,1011.39
2019-01-08T08:47:10.954Z,1011.4
2019-01-08T08:48:20.935Z,1011.32
2019-01-08T08:49:30.378Z,1011.33
2019-01-08T08:50:40.076Z,1011.34
2019-01-08T08:51:49.275Z,1011.37
2019-01-08T08:52:58.743Z,1011.29
2019-01-08T08:54:08.210Z,1011.26
2019-01-08T08:55:18.161Z,1011.32
2019-01-08T08:56:27.378Z,1011.31
2019-01-08T08:57:36.565Z,1011.3
2019-01-08T08:58:46.256Z,1011.17
2019-01-08T08:59:55.968Z,1011.24
2019-01-08T09:01:06.950Z,1011.21
2019-01-08T09:02:16.860Z,1011.25
2019-01-08T09:03:26.054Z,1011.34
2019-01-08T09:04:35.505Z,1011.27
2019-01-08T09:05:44.471Z,1011.32
2019-01-08T09:06:53.667Z,1011.2
2019-01-08T09:08:03.114Z,1011.31
2019-01-08T09:09:12.042Z,1011.14
2019-01-08T09:10:21.230Z,1011.26
2019-01-08T09:11:29.920Z,1011.22
2019-01-08T09:12:39.621Z,1011.24
2019-01-08T09:13:49.051Z,1011.18
2019-01-08T09:14:58.552Z,1011.19
2019-01-08T09:16:08.499Z,1011.26
2019-01-08T09:17:17.494Z,1011.25
2019-01-08T09:18:26.986Z,1011.17
2019-01-08T09:19:36.451Z,1011.21
2019-01-08T09:20:45.715Z,1011.2
2019-01-08T09:21:55.471Z,1011.17
2019-01-08T09:23:04.652Z,1011.17
2019-01-08T09:24:13.830Z,1011.28
2019-01-08T09:25:23.037Z,1011.23
2019-01-08T09:26:32.238Z,1011.23
2019-01-08T09:27:42.201Z,1011.28
2019-01-08T09:28:51.647Z,1011.34
2019-01-08T09:30:01.355Z,1011.33
2019-01-08T09:31:15.232Z,1011.31
2019-01-08T09:32:25.145Z,1011.26
2019-01-08T09:33:34.841Z,1011.34
2019-01-08T09:34:44.026Z,1011.29
2019-01-08T09:35:53.476Z,1011.2
2019-01-08T09:37:02.978Z,1011.29
2019-01-08T09:38:12.394Z,1011.2
2019-01-08T09:39:21.841Z,1011.33
2019-01-08T09:40:31.763Z,1011.22
2019-01-08T09:41:41.209Z,1011.28
2019-01-08T09:42:50.400Z,1011.25
2019-01-08T09:44:00.084Z,1011.22
2019-01-08T09:45:09.288Z,1011.09
2019-01-08T09:46:18.870Z,1011.24
2019-01-08T09:47:27.566Z,1011.22
2019-01-08T09:48:37.489Z,1011.18
2019-01-08T09:49:47.185Z,1011.16
2019-01-08T09:50:56.644Z,1011.21
2019-01-08T09:52:05.343Z,1011.19
2019-01-08T09:53:14.271Z,1011.2
2019-01-08T09:54:23.540Z,1011.12
2019-01-08T09:55:32.969Z,1011.18
2019-01-08T09:56:42.895Z,1011.18
2019-01-08T09:57:52.585Z,1011.13
2019-01-08T09:59:02.272Z,1011.26
2019-01-08T10:00:11.982Z,1011.11
2019-01-08T10:01:23.970Z,1011.19
2019-01-08T10:02:33.708Z,1011.19
2019-01-08T10:03:43.142Z,1011.28
2019-01-08T10:04:52.583Z,1011.21
2019-01-08T10:06:02.275Z,1011.25
2019-01-08T10:07:11.706Z,1011.19
2019-01-08T10:08:20.914Z,1011.19
2019-01-08T10:09:30.599Z,1011.07
2019-01-08T10:10:39.796Z,1010.98
2019-01-08T10:11:49.248Z,1011.14
2019-01-08T10:12:58.451Z,1011.08
2019-01-08T10:14:08.155Z,1011.13
2019-01-08T10:15:17.343Z,1011.25
2019-01-08T10:16:26.303Z,1011.18
2019-01-08T10:17:35.515Z,1011.17
2019-01-08T10:18:45.458Z,1011.18
2019-01-08T10:19:55.158Z,1011.08
2019-01-08T10:21:04.606Z,1011.09
2019-01-08T10:22:13.289Z,1011.12
2019-01-08T10:23:22.729Z,1011.13
2019-01-08T10:24:32.196Z,1011.19
2019-01-08T10:25:41.894Z,1011.03
2019-01-08T10:26:50.823Z,1011
2019-01-08T10:28:00.258Z,1011.15
2019-01-08T10:29:09.441Z,1011.07
2019-01-08T10:30:19.129Z,1011.17
2019-01-08T10:31:32.503Z,1011
2019-01-08T10:32:42.247Z,1011
2019-01-08T10:33:51.940Z,1011.02
2019-01-08T10:35:00.879Z,1010.91
2019-01-08T10:36:10.581Z,1010.98
2019-01-08T10:37:19.532Z,1010.95
2019-01-08T10:38:28.743Z,1010.86
2019-01-08T10:39:37.480Z,1010.89
2019-01-08T10:40:47.415Z,1010.79
2019-01-08T10:41:56.628Z,1010.88
2019-01-08T10:43:05.814Z,1010.83
2019-01-08T10:44:14.998Z,1010.86
2019-01-08T10:45:23.927Z,1010.78
2019-01-08T10:46:37.471Z,1010.83
2019-01-08T10:47:46.921Z,1010.79
2019-01-08T10:48:56.103Z,1010.81
2019-01-08T10:50:05.294Z,1010.78
2019-01-08T10:51:15.001Z,1010.75
2019-01-08T10:52:24.690Z,1010.78
2019-01-08T10:53:34.194Z,1010.75
2019-01-08T10:54:43.385Z,1010.78
2019-01-08T10:55:52.826Z,1010.78
2019-01-08T10:57:02.778Z,1010.78
2019-01-08T10:58:12.215Z,1010.8
2019-01-08T10:59:21.917Z,1010.75
2019-01-08T11:00:31.363Z,1010.8
2019-01-08T11:01:41.003Z,1010.7
2019-01-08T11:02:50.486Z,1010.77
2019-01-08T11:04:00.423Z,1010.82
2019-01-08T11:05:09.361Z,1010.72
2019-01-08T11:06:18.540Z,1010.7
2019-01-08T11:07:27.975Z,1010.72
2019-01-08T11:08:37.673Z,1010.64
2019-01-08T11:09:47.399Z,1010.68
2019-01-08T11:10:56.832Z,1010.61
2019-01-08T11:12:06.069Z,1010.6
2019-01-08T11:13:15.773Z,1010.6
2019-01-08T11:14:25.208Z,1010.55
2019-01-08T11:15:34.150Z,1010.55
2019-01-08T11:16:42.847Z,1010.54
2019-01-08T11:17:53.495Z,1010.53
2019-01-08T11:19:03.193Z,1010.53
2019-01-08T11:20:12.620Z,1010.63
2019-01-08T11:21:21.820Z,1010.55
2019-01-08T11:22:31.004Z,1010.51
2019-01-08T11:23:40.987Z,1010.49
2019-01-08T11:24:50.670Z,1010.52
2019-01-08T11:26:00.373Z,1010.55
2019-01-08T11:27:10.058Z,1010.56
2019-01-08T11:28:19.259Z,1010.58
2019-01-08T11:29:28.971Z,1010.46
2019-01-08T11:30:38.693Z,1010.47
2019-01-08T11:31:48.894Z,1010.45
2019-01-08T11:32:58.394Z,1010.61
2019-01-08T11:34:07.588Z,1010.46
2019-01-08T11:35:17.544Z,1010.5
2019-01-08T11:36:26.768Z,1010.42
2019-01-08T11:37:35.966Z,1010.45
2019-01-08T11:38:45.172Z,1010.37
2019-01-08T11:39:54.615Z,1010.43
2019-01-08T11:41:03.842Z,1010.42
2019-01-08T11:42:13.016Z,1010.58
2019-01-08T11:43:22.452Z,1010.33
2019-01-08T11:44:31.913Z,1010.39
2019-01-08T11:45:41.110Z,1010.45
2019-01-08T11:46:50.569Z,1010.39
2019-01-08T11:48:04.010Z,1010.43
2019-01-08T11:49:13.530Z,1010.4
2019-01-08T11:50:22.494Z,1010.38
2019-01-08T11:51:32.193Z,1010.34
2019-01-08T11:52:41.263Z,1010.4
2019-01-08T11:53:50.875Z,1010.2
2019-01-08T11:54:59.813Z,1010.01
2019-01-08T11:56:09.267Z,1010.19
2019-01-08T11:57:18.736Z,1010.23
2019-01-08T11:58:28.165Z,1010.25
2019-01-08T11:59:37.871Z,1010.22
2019-01-08T12:00:48.777Z,1010.23
2019-01-08T12:01:58.236Z,1010.26
2019-01-08T12:03:07.437Z,1010.27
2019-01-08T12:04:16.868Z,1010.16
2019-01-08T12:05:26.812Z,1010.19
2019-01-08T12:06:36.001Z,1010.15
2019-01-08T12:07:44.942Z,1010.2
2019-01-08T12:08:54.398Z,1010.19
2019-01-08T12:10:03.869Z,1010.22
2019-01-08T12:11:13.573Z,1010.2
2019-01-08T12:12:23.520Z,1010.01
2019-01-08T12:13:32.462Z,1010.18
2019-01-08T12:14:41.925Z,1010.17
2019-01-08T12:15:51.399Z,1010.14
2019-01-08T12:17:00.828Z,1010.1
2019-01-08T12:18:10.789Z,1010.02
2019-01-08T12:19:20.503Z,1010
2019-01-08T12:20:29.721Z,1009.94
2019-01-08T12:21:39.176Z,1010
2019-01-08T12:22:48.398Z,1010.01
2019-01-08T12:23:57.586Z,1010.02
2019-01-08T12:25:07.063Z,1009.92
2019-01-08T12:26:16.526Z,1010.04
2019-01-08T12:27:25.210Z,1009.96
2019-01-08T12:28:34.932Z,1009.86
2019-01-08T12:29:44.373Z,1009.98
2019-01-08T12:30:53.576Z,1009.89
2019-01-08T12:32:06.095Z,1010.05
2019-01-08T12:33:15.680Z,1009.97
2019-01-08T12:34:25.135Z,1009.98
2019-01-08T12:35:34.609Z,1010.03
2019-01-08T12:36:44.317Z,1010.06
2019-01-08T12:37:53.005Z,1010.12
2019-01-08T12:39:02.207Z,1009.98
2019-01-08T12:40:11.645Z,1010.07
2019-01-08T12:41:21.371Z,1010.09
2019-01-08T12:42:30.355Z,1010
2019-01-08T12:43:39.817Z,1009.96
2019-01-08T12:44:48.776Z,1010.02
2019-01-08T12:45:57.516Z,1010.05
2019-01-08T12:47:06.731Z,1010.12
2019-01-08T12:48:16.430Z,1010.18
2019-01-08T12:49:26.128Z,1010.11
2019-01-08T12:50:35.595Z,1010.3
2019-01-08T12:51:44.817Z,1010.15
2019-01-08T12:52:54.277Z,1010.33
2019-01-08T12:54:03.782Z,1010.16
2019-01-08T12:55:13.174Z,1010.28
2019-01-08T12:56:22.677Z,1010.29
2019-01-08T12:57:31.883Z,1010.33
2019-01-08T12:58:41.870Z,1010.28
2019-01-08T12:59:51.098Z,1010.32
2019-01-08T13:01:00.058Z,1010.43
2019-01-08T13:02:14.441Z,1010.38
2019-01-08T13:03:24.378Z,1010.39
2019-01-08T13:04:33.822Z,1010.43
2019-01-08T13:05:43.255Z,1010.45
2019-01-08T13:06:52.473Z,1010.51
2019-01-08T13:08:02.262Z,1010.32
2019-01-08T13:09:12.202Z,1010.34
2019-01-08T13:10:21.395Z,1010.28
2019-01-08T13:11:30.330Z,1010.31
2019-01-08T13:12:39.506Z,1010.26
2019-01-08T13:13:49.187Z,1010.24
2019-01-08T13:14:58.709Z,1010.16
2019-01-08T13:16:08.398Z,1010.21
2019-01-08T13:17:18.089Z,1010.11
2019-01-08T13:18:27.280Z,1010.21
2019-01-08T13:19:36.947Z,1010.2
2019-01-08T13:20:46.396Z,1010.18
2019-01-08T13:21:56.085Z,1010.13
2019-01-08T13:23:05.769Z,1010.16
2019-01-08T13:24:14.961Z,1010.11
2019-01-08T13:25:23.904Z,1010.11
2019-01-08T13:26:33.675Z,1010.09
2019-01-08T13:27:43.160Z,1010.01
2019-01-08T13:28:52.633Z,1010.24
2019-01-08T13:30:02.418Z,1010.16
2019-01-08T13:31:12.087Z,1010.29
2019-01-08T13:32:23.182Z,1010.3
2019-01-08T13:33:32.296Z,1010.4
2019-01-08T13:34:41.751Z,1010.42
2019-01-08T13:35:51.207Z,1010.4
2019-01-08T13:37:00.781Z,1010.35
2019-01-08T13:38:10.018Z,1010.24
2019-01-08T13:39:19.714Z,1010.2
2019-01-08T13:40:28.915Z,1010.21
2019-01-08T13:41:38.881Z,1010.13
2019-01-08T13:42:48.157Z,1010
2019-01-08T13:43:57.595Z,1010.15
2019-01-08T13:45:07.118Z,1010.14
2019-01-08T13:46:16.830Z,1010.06
2019-01-08T13:47:25.761Z,1010.06
2019-01-08T13:48:34.955Z,1010.1
2019-01-08T13:49:44.149Z,1010.09
2019-01-08T13:50:53.788Z,1010.16
2019-01-08T13:52:02.723Z,1010.15
2019-01-08T13:53:11.646Z,1010.16
2019-01-08T13:54:21.174Z,1010.16
2019-01-08T13:55:30.351Z,1010.19
2019-01-08T13:56:39.538Z,1010.22
2019-01-08T13:57:48.549Z,1010.35
2019-01-08T13:58:57.531Z,1010.34
2019-01-08T14:00:06.714Z,1010.42
2019-01-08T14:01:15.910Z,1010.47
2019-01-08T14:02:31.778Z,1010.57
2019-01-08T14:03:41.229Z,1010.63
2019-01-08T14:04:50.939Z,1010.75